createdAt,value
2024-03-18T00:00:48.404Z,29.61
2024-03-18T00:01:48.481Z,29.60
2024-03-18T00:02:48.582Z,29.61
2024-03-18T00:03:48.637Z,29.61
2024-03-18T00:04:48.773Z,29.60
2024-03-18T00:05:48.760Z,29.60
2024-03-18T00:06:48.878Z,29.62
2024-03-18T00:07:48.931Z,29.60
2024-03-18T00:08:49.033Z,29.60
2024-03-18T00:09:49.083Z,29.63
2024-03-18T00:10:49.129Z,29.62
2024-03-18T00:11:49.208Z,29.62
2024-03-18T00:12:49.320Z,29.62
2024-03-18T00:13:49.381Z,29.63
2024-03-18T00:14:49.487Z,29.63
2024-03-18T00:15:49.503Z,29.64
2024-03-18T00:16:49.569Z,29.64
2024-03-18T00:17:49.631Z,29.66
2024-03-18T00:18:49.717Z,29.65
2024-03-18T00:19:49.818Z,29.66
2024-03-18T00:20:49.859Z,29.67
2024-03-18T00:21:49.942Z,29.68
2024-03-18T00:22:50.044Z,29.69
2024-03-18T00:23:50.981Z,29.68
2024-03-18T00:24:50.196Z,29.68
2024-03-18T00:25:50.256Z,29.70
2024-03-18T00:26:50.338Z,29.70
2024-03-18T00:27:50.393Z,29.71
2024-03-18T00:28:50.463Z,29.70
2024-03-18T00:29:50.558Z,29.70
2024-03-18T00:30:50.630Z,29.73
2024-03-18T00:31:50.678Z,29.72
2024-03-18T00:32:50.783Z,29.73
2024-03-18T00:33:50.837Z,29.74
2024-03-18T00:34:50.967Z,29.75
2024-03-18T00:35:51.809Z,29.75
2024-03-18T00:36:51.065Z,29.73
2024-03-18T00:37:51.824Z,29.75
2024-03-18T00:38:51.191Z,29.76
2024-03-18T00:39:51.324Z,29.76
2024-03-18T00:40:51.388Z,29.78
2024-03-18T00:41:51.403Z,29.77
2024-03-18T00:42:51.536Z,29.78
2024-03-18T00:43:51.593Z,29.80
2024-03-18T00:44:51.740Z,29.80
2024-03-18T00:45:51.715Z,29.81
2024-03-18T00:46:51.804Z,29.80
2024-03-18T00:47:51.848Z,29.81
2024-03-18T00:48:51.926Z,29.82
2024-03-18T00:49:52.046Z,29.82
2024-03-18T00:50:52.128Z,29.82
2024-03-18T00:51:52.189Z,29.84
2024-03-18T00:52:52.241Z,29.82
2024-03-18T00:53:52.311Z,29.84
2024-03-18T00:54:52.406Z,29.85
2024-03-18T00:55:52.499Z,29.85
2024-03-18T00:56:52.534Z,29.84
2024-03-18T00:57:52.614Z,29.84
2024-03-18T00:58:52.717Z,29.87
2024-03-18T00:59:52.799Z,29.85
2024-03-18T01:00:52.860Z,29.86
2024-03-18T01:01:52.930Z,29.86
2024-03-18T01:02:52.982Z,29.85
2024-03-18T01:03:53.095Z,29.87
2024-03-18T01:04:53.155Z,29.87
2024-03-18T01:05:53.204Z,29.87
2024-03-18T01:06:53.274Z,29.86
2024-03-18T01:07:53.420Z,29.86
2024-03-18T01:08:53.515Z,29.87
2024-03-18T01:09:53.576Z,29.87
2024-03-18T01:10:53.571Z,29.88
2024-03-18T01:11:53.630Z,29.90
2024-03-18T01:12:53.785Z,29.90
2024-03-18T01:13:53.775Z,29.90
2024-03-18T01:14:53.885Z,29.89
2024-03-18T01:15:53.933Z,29.89
2024-03-18T01:16:54.090Z,29.91
2024-03-18T01:17:54.112Z,29.90
2024-03-18T01:18:54.168Z,29.90
2024-03-18T01:19:54.261Z,29.89
2024-03-18T01:20:54.273Z,29.90
2024-03-18T01:21:54.338Z,29.90
2024-03-18T01:22:54.451Z,29.89
2024-03-18T01:23:54.505Z,29.91
2024-03-18T01:24:54.612Z,29.90
2024-03-18T01:25:54.630Z,29.92
2024-03-18T01:26:54.702Z,29.94
2024-03-18T01:27:54.797Z,29.91
2024-03-18T01:28:54.877Z,29.92
2024-03-18T01:29:54.949Z,29.93
2024-03-18T01:30:55.014Z,29.93
2024-03-18T01:31:55.075Z,29.92
2024-03-18T01:32:55.128Z,29.94
2024-03-18T01:33:55.250Z,29.93
2024-03-18T01:34:55.285Z,29.94
2024-03-18T01:35:55.376Z,29.93
2024-03-18T01:36:55.468Z,29.95
2024-03-18T01:37:55.519Z,29.98
2024-03-18T01:38:55.577Z,29.97
2024-03-18T01:39:55.691Z,29.96
2024-03-18T01:40:55.766Z,29.96
2024-03-18T01:41:55.803Z,29.97
2024-03-18T01:42:55.909Z,29.97
2024-03-18T01:43:55.955Z,30.01
2024-03-18T01:44:56.074Z,29.99
2024-03-18T01:45:56.135Z,29.98
2024-03-18T01:46:56.185Z,30.00
2024-03-18T01:47:56.258Z,30.01
2024-03-18T01:48:56.361Z,30.02
2024-03-18T01:49:56.434Z,30.03
2024-03-18T01:50:56.480Z,30.04
2024-03-18T01:51:56.595Z,30.03
2024-03-18T01:52:56.642Z,30.03
2024-03-18T01:53:56.701Z,30.05
2024-03-18T01:54:56.819Z,30.06
2024-03-18T01:55:56.851Z,30.06
2024-03-18T01:56:56.979Z,30.06
2024-03-18T01:57:57.044Z,30.06
2024-03-18T01:58:57.099Z,30.06
2024-03-18T01:59:57.208Z,30.07
2024-03-18T02:00:57.214Z,30.08
2024-03-18T02:01:57.318Z,30.08
2024-03-18T02:02:57.379Z,30.12
2024-03-18T02:03:57.440Z,30.10
2024-03-18T02:04:57.495Z,30.11
2024-03-18T02:05:57.605Z,30.12
2024-03-18T02:06:57.659Z,30.12
2024-03-18T02:07:57.722Z,30.12
2024-03-18T02:08:57.772Z,30.12
2024-03-18T02:09:57.867Z,30.13
2024-03-18T02:10:57.945Z,30.12
2024-03-18T02:11:58.004Z,30.13
2024-03-18T02:12:58.119Z,30.13
2024-03-18T02:13:58.141Z,30.15
2024-03-18T02:14:58.223Z,30.15
2024-03-18T02:15:58.287Z,30.14
2024-03-18T02:16:58.338Z,30.15
2024-03-18T02:17:58.397Z,30.16
2024-03-18T02:18:58.476Z,30.17
2024-03-18T02:19:58.566Z,30.20
2024-03-18T02:20:58.580Z,30.19
2024-03-18T02:21:58.693Z,30.20
2024-03-18T02:22:58.741Z,30.21
2024-03-18T02:23:58.818Z,30.23
2024-03-18T02:24:58.863Z,30.23
2024-03-18T02:25:58.921Z,30.25
2024-03-18T02:26:58.987Z,30.28
2024-03-18T02:27:59.054Z,30.30
2024-03-18T02:28:59.139Z,30.32
2024-03-18T02:29:59.241Z,30.33
2024-03-18T02:30:59.289Z,30.33
2024-03-18T02:31:59.359Z,30.35
2024-03-18T02:32:59.433Z,30.35
2024-03-18T02:33:59.465Z,30.39
2024-03-18T02:34:59.581Z,30.40
2024-03-18T02:35:59.658Z,30.40
2024-03-18T02:36:59.714Z,30.43
2024-03-18T02:37:59.758Z,30.45
2024-03-18T02:38:59.823Z,30.47
2024-03-18T02:39:59.919Z,30.48
2024-03-18T02:41:00.008Z,30.49
2024-03-18T02:42:00.030Z,30.49
2024-03-18T02:43:00.112Z,30.51
2024-03-18T02:44:00.179Z,30.53
2024-03-18T02:45:00.261Z,30.53
2024-03-18T02:46:00.342Z,30.55
2024-03-18T02:47:00.453Z,30.54
2024-03-18T02:48:00.551Z,30.55
2024-03-18T02:49:00.613Z,30.59
2024-03-18T02:50:00.674Z,30.59
2024-03-18T02:51:00.731Z,30.59
2024-03-18T02:52:00.790Z,30.58
2024-03-18T02:53:00.846Z,30.63
2024-03-18T02:54:00.950Z,30.65
2024-03-18T02:55:01.012Z,30.64
2024-03-18T02:56:01.087Z,30.68
2024-03-18T02:57:01.191Z,30.66
2024-03-18T02:58:01.244Z,30.68
2024-03-18T02:59:01.306Z,30.69
2024-03-18T03:00:01.385Z,30.70
2024-03-18T03:01:01.465Z,30.72
2024-03-18T03:02:01.603Z,30.72
2024-03-18T03:03:01.583Z,30.72
2024-03-18T03:04:01.667Z,30.73
2024-03-18T03:05:01.714Z,30.78
2024-03-18T03:06:01.779Z,30.76
2024-03-18T03:07:01.862Z,30.77
2024-03-18T03:08:01.915Z,30.79
2024-03-18T03:09:01.989Z,30.80
2024-03-18T03:10:02.155Z,30.82
2024-03-18T03:11:02.132Z,30.84
2024-03-18T03:12:02.201Z,30.84
2024-03-18T03:13:02.271Z,30.85
2024-03-18T03:14:02.329Z,30.87
2024-03-18T03:15:02.443Z,30.87
2024-03-18T03:16:02.519Z,30.90
2024-03-18T03:17:02.552Z,30.89
2024-03-18T03:18:03.347Z,30.91
2024-03-18T03:19:02.683Z,30.93
2024-03-18T03:20:02.763Z,30.93
2024-03-18T03:21:02.829Z,30.94
2024-03-18T03:22:02.898Z,30.96
2024-03-18T03:23:03.004Z,30.97
2024-03-18T03:24:03.053Z,30.98
2024-03-18T03:25:03.133Z,30.99
2024-03-18T03:26:03.234Z,31.00
2024-03-18T03:27:03.277Z,31.00
2024-03-18T03:28:03.361Z,31.03
2024-03-18T03:29:03.466Z,31.01
2024-03-18T03:30:05.060Z,31.03
2024-03-18T03:31:03.512Z,31.07
2024-03-18T03:32:03.568Z,31.08
2024-03-18T03:33:03.595Z,31.07
2024-03-18T03:34:03.594Z,31.10
2024-03-18T03:35:03.673Z,31.09
2024-03-18T03:36:03.669Z,31.11
2024-03-18T03:37:03.716Z,31.12
2024-03-18T03:38:03.744Z,31.13
2024-03-18T03:39:03.792Z,31.13
2024-03-18T03:40:03.900Z,31.14
2024-03-18T03:41:03.933Z,31.17
2024-03-18T03:42:03.991Z,31.17
2024-03-18T03:43:04.126Z,31.18
2024-03-18T03:44:04.150Z,31.19
2024-03-18T03:45:04.238Z,31.19
2024-03-18T03:46:04.338Z,31.19
2024-03-18T03:47:05.864Z,31.20
2024-03-18T03:48:04.667Z,31.21
2024-03-18T03:49:04.623Z,31.21
2024-03-18T03:50:04.683Z,31.24
2024-03-18T03:51:04.706Z,31.24
2024-03-18T03:52:04.726Z,31.28
2024-03-18T03:53:04.739Z,31.26
2024-03-18T03:54:04.742Z,31.26
2024-03-18T03:55:04.804Z,31.29
2024-03-18T03:56:04.815Z,31.30
2024-03-18T03:57:04.835Z,31.31
2024-03-18T03:58:05.452Z,31.31
2024-03-18T03:59:04.881Z,31.35
2024-03-18T04:00:06.625Z,31.34
2024-03-18T04:01:04.933Z,31.36
2024-03-18T04:02:04.965Z,31.36
2024-03-18T04:03:05.005Z,31.37
2024-03-18T04:04:05.012Z,31.37
2024-03-18T04:05:05.040Z,31.38
2024-03-18T04:06:05.090Z,31.40
2024-03-18T04:07:05.090Z,31.40
2024-03-18T04:08:05.101Z,31.41
2024-03-18T04:09:05.147Z,31.42
2024-03-18T04:10:05.279Z,31.43
2024-03-18T04:11:05.337Z,31.44
2024-03-18T04:12:05.432Z,31.46
2024-03-18T04:13:05.505Z,31.44
2024-03-18T04:14:05.549Z,31.46
2024-03-18T04:15:05.617Z,31.48
2024-03-18T04:16:05.729Z,31.48
2024-03-18T04:17:05.782Z,31.48
2024-03-18T04:18:05.840Z,31.51
2024-03-18T04:19:05.924Z,31.50
2024-03-18T04:20:06.049Z,31.52
2024-03-18T04:21:06.057Z,31.53
2024-03-18T04:22:06.117Z,31.53
2024-03-18T04:23:06.193Z,31.55
2024-03-18T04:24:06.292Z,31.54
2024-03-18T04:25:06.350Z,31.55
2024-03-18T04:26:06.465Z,31.56
2024-03-18T04:27:06.494Z,31.56
2024-03-18T04:28:06.604Z,31.56
2024-03-18T04:29:06.685Z,31.57
2024-03-18T04:30:07.093Z,31.59
2024-03-18T04:31:06.846Z,31.60
2024-03-18T04:32:06.915Z,31.59
2024-03-18T04:33:07.008Z,31.59
2024-03-18T04:34:07.116Z,31.60
2024-03-18T04:35:07.164Z,31.61
2024-03-18T04:36:07.251Z,31.60
2024-03-18T04:37:07.292Z,31.62
2024-03-18T04:38:07.389Z,31.62
2024-03-18T04:39:07.469Z,31.63
2024-03-18T04:40:07.507Z,31.65
2024-03-18T04:41:07.582Z,31.65
2024-03-18T04:42:07.692Z,31.66
2024-03-18T04:43:07.724Z,31.66
2024-03-18T04:44:07.799Z,31.66
2024-03-18T04:45:07.933Z,31.67
2024-03-18T04:46:07.967Z,31.66
2024-03-18T04:47:08.036Z,31.67
2024-03-18T04:48:08.080Z,31.69
2024-03-18T04:49:08.154Z,31.68
2024-03-18T04:50:08.258Z,31.69
2024-03-18T04:51:08.377Z,31.70
2024-03-18T04:52:08.369Z,31.72
2024-03-18T04:53:08.489Z,31.71
2024-03-18T04:54:08.517Z,31.72
2024-03-18T04:55:08.605Z,31.74
2024-03-18T04:56:08.647Z,31.74
2024-03-18T04:57:08.710Z,31.75
2024-03-18T04:58:08.767Z,31.75
2024-03-18T04:59:08.882Z,31.76
2024-03-18T05:00:08.944Z,31.75
2024-03-18T05:01:09.027Z,31.78
2024-03-18T05:02:09.101Z,31.79
2024-03-18T05:03:09.161Z,31.78
2024-03-18T05:04:09.222Z,31.80
2024-03-18T05:05:09.394Z,31.79
2024-03-18T05:06:09.415Z,31.80
2024-03-18T05:07:09.508Z,31.79
2024-03-18T05:08:09.561Z,31.81
2024-03-18T05:09:09.615Z,31.79
2024-03-18T05:10:09.771Z,31.81
2024-03-18T05:11:09.754Z,31.81
2024-03-18T05:12:09.851Z,31.82
2024-03-18T05:13:09.954Z,31.82
2024-03-18T05:14:09.994Z,31.83
2024-03-18T05:15:10.101Z,31.83
2024-03-18T05:16:10.179Z,31.82
2024-03-18T05:17:10.221Z,31.85
2024-03-18T05:18:10.307Z,31.85
2024-03-18T05:19:10.350Z,31.85
2024-03-18T05:20:10.456Z,31.85
2024-03-18T05:21:10.547Z,31.86
2024-03-18T05:22:10.591Z,31.87
2024-03-18T05:23:10.666Z,31.87
2024-03-18T05:24:10.757Z,31.90
2024-03-18T05:25:10.866Z,31.88
2024-03-18T05:26:10.920Z,31.90
2024-03-18T05:27:11.010Z,31.89
2024-03-18T05:28:11.066Z,31.92
2024-03-18T05:29:11.129Z,31.91
2024-03-18T05:30:11.184Z,31.92
2024-03-18T05:31:11.306Z,31.90
2024-03-18T05:32:11.340Z,31.92
2024-03-18T05:33:11.427Z,31.94
2024-03-18T05:34:11.485Z,31.94
2024-03-18T05:35:11.575Z,31.95
2024-03-18T05:36:11.638Z,31.96
2024-03-18T05:37:11.699Z,31.97
2024-03-18T05:38:11.807Z,31.93
2024-03-18T05:39:11.873Z,31.92
2024-03-18T05:40:11.978Z,31.93
2024-03-18T05:41:11.987Z,31.93
2024-03-18T05:42:12.092Z,31.95
2024-03-18T05:43:45.789Z,31.97
2024-03-18T05:44:45.792Z,31.97
2024-03-18T05:45:45.858Z,31.96
2024-03-18T05:46:45.870Z,31.97
2024-03-18T05:47:45.903Z,31.95
2024-03-18T05:48:45.872Z,31.90
2024-03-18T05:49:45.931Z,31.86
2024-03-18T05:50:45.929Z,31.89
2024-03-18T05:51:45.885Z,31.90
2024-03-18T05:52:45.885Z,31.88
2024-03-18T05:53:45.909Z,31.88
2024-03-18T05:54:45.920Z,31.89
2024-03-18T05:55:45.897Z,31.88
2024-03-18T05:56:45.891Z,31.88
2024-03-18T05:57:45.885Z,31.88
2024-03-18T05:58:45.892Z,31.90
2024-03-18T05:59:45.912Z,31.90
2024-03-18T06:00:45.903Z,31.91
2024-03-18T06:01:45.877Z,31.90
2024-03-18T06:02:45.923Z,31.93
2024-03-18T06:03:45.875Z,31.91
2024-03-18T06:04:45.924Z,31.96
2024-03-18T06:05:45.930Z,31.93
2024-03-18T06:06:46.018Z,31.95
2024-03-18T06:07:45.949Z,31.96
2024-03-18T06:08:45.914Z,31.95
2024-03-18T06:09:45.920Z,31.97
2024-03-18T06:10:45.981Z,31.96
2024-03-18T06:11:45.929Z,31.96
2024-03-18T06:12:45.926Z,31.99
2024-03-18T06:13:45.918Z,31.97
2024-03-18T06:14:45.916Z,32.01
2024-03-18T06:15:45.943Z,32.02
2024-03-18T06:16:45.936Z,32.03
2024-03-18T06:17:45.965Z,32.04
2024-03-18T06:18:45.924Z,32.03
2024-03-18T06:19:45.924Z,32.08
2024-03-18T06:20:45.953Z,32.08
2024-03-18T06:21:45.937Z,32.08
2024-03-18T06:22:45.940Z,32.04
2024-03-18T06:23:45.952Z,32.00
2024-03-18T06:24:46.925Z,31.99
2024-03-18T06:25:45.964Z,32.01
2024-03-18T06:26:46.008Z,31.94
2024-03-18T06:27:46.093Z,31.92
2024-03-18T06:28:46.156Z,31.88
2024-03-18T06:29:46.223Z,31.83
2024-03-18T06:30:46.315Z,31.82
2024-03-18T06:31:46.350Z,31.80
2024-03-18T06:32:46.434Z,31.77
2024-03-18T06:33:46.541Z,31.77
2024-03-18T06:34:50.036Z,31.75
2024-03-18T06:35:46.595Z,31.81
2024-03-18T06:36:46.565Z,32.26
2024-03-18T06:37:46.622Z,32.16
2024-03-18T06:38:46.564Z,32.50
2024-03-18T06:39:46.617Z,32.36
2024-03-18T06:40:46.574Z,32.68
2024-03-18T06:41:46.632Z,32.65
2024-03-18T06:42:46.610Z,32.84
2024-03-18T06:43:46.613Z,32.72
2024-03-18T06:44:46.578Z,33.92
2024-03-18T06:45:46.643Z,33.76
2024-03-18T06:46:46.561Z,33.82
2024-03-18T06:47:48.884Z,33.95
2024-03-18T06:48:46.558Z,34.43
2024-03-18T06:49:46.649Z,34.39
2024-03-18T06:50:46.570Z,34.57
2024-03-18T06:51:46.604Z,34.81
2024-03-18T06:52:46.613Z,34.98
2024-03-18T06:53:46.578Z,34.94
2024-03-18T06:54:46.606Z,35.20
2024-03-18T06:55:48.748Z,35.25
2024-03-18T06:56:46.591Z,35.33
2024-03-18T06:57:46.598Z,35.43
2024-03-18T06:58:46.640Z,35.53
2024-03-18T06:59:46.604Z,35.50
2024-03-18T07:00:46.653Z,35.64
2024-03-18T07:01:46.739Z,35.78
2024-03-18T07:02:46.759Z,35.80
2024-03-18T07:03:46.852Z,35.78
2024-03-18T07:04:46.898Z,35.70
2024-03-18T07:05:46.975Z,35.62
2024-03-18T07:06:47.016Z,35.52
2024-03-18T07:07:47.007Z,35.38
2024-03-18T07:08:47.034Z,35.24
2024-03-18T07:09:47.071Z,35.21
2024-03-18T07:10:47.142Z,35.22
2024-03-18T07:11:47.154Z,35.20
2024-03-18T07:12:47.194Z,35.23
2024-03-18T07:13:47.195Z,35.23
2024-03-18T07:14:47.226Z,35.14
2024-03-18T07:15:47.240Z,35.16
2024-03-18T07:16:47.324Z,35.22
2024-03-18T07:17:47.330Z,35.11
2024-03-18T07:18:47.381Z,35.20
2024-03-18T07:20:02.852Z,35.15
2024-03-18T07:20:48.845Z,35.32
2024-03-18T07:21:47.459Z,35.25
2024-03-18T07:22:47.462Z,35.21
2024-03-18T07:23:47.471Z,35.28
2024-03-18T07:24:47.442Z,35.34
2024-03-18T07:25:47.479Z,35.20
2024-03-18T07:26:47.525Z,35.28
2024-03-18T07:27:47.509Z,35.34
2024-03-18T07:28:47.485Z,35.44
2024-03-18T07:29:47.482Z,35.46
2024-03-18T07:30:47.577Z,35.39
2024-03-18T07:31:47.623Z,35.33
2024-03-18T07:32:47.680Z,35.42
2024-03-18T07:33:47.699Z,35.51
2024-03-18T07:34:49.567Z,35.53
2024-03-18T07:35:47.833Z,35.52
2024-03-18T07:36:47.872Z,35.44
2024-03-18T07:37:47.818Z,35.51
2024-03-18T07:38:47.877Z,35.63
2024-03-18T07:39:47.820Z,35.57
2024-03-18T07:40:47.815Z,35.65
2024-03-18T07:41:47.855Z,35.71
2024-03-18T07:42:47.844Z,35.63
2024-03-18T07:43:47.894Z,35.62
2024-03-18T07:44:47.806Z,35.65
2024-03-18T07:45:47.898Z,35.70
2024-03-18T07:46:47.862Z,35.69
2024-03-18T07:47:47.837Z,35.42
2024-03-18T07:48:47.874Z,35.01
2024-03-18T07:49:47.844Z,35.28
2024-03-18T07:50:47.913Z,35.29
2024-03-18T07:51:47.862Z,35.39
2024-03-18T07:52:47.907Z,35.46
2024-03-18T07:53:47.903Z,35.43
2024-03-18T07:54:47.904Z,35.49
2024-03-18T07:55:47.918Z,35.69
2024-03-18T07:56:47.941Z,35.77
2024-03-18T07:57:48.090Z,35.85
2024-03-18T07:58:47.916Z,35.94
2024-03-18T07:59:47.883Z,36.00
2024-03-18T08:00:47.930Z,36.07
2024-03-18T08:01:47.929Z,36.16
2024-03-18T08:02:47.961Z,36.23
2024-03-18T08:03:47.918Z,36.07
2024-03-18T08:04:47.942Z,36.12
2024-03-18T08:05:47.928Z,36.44
2024-03-18T08:06:47.892Z,36.37
2024-03-18T08:07:47.903Z,36.29
2024-03-18T08:08:47.999Z,36.33
2024-03-18T08:09:48.118Z,36.21
2024-03-18T08:10:49.684Z,36.25
2024-03-18T08:11:48.247Z,36.17
2024-03-18T08:12:48.309Z,36.18
2024-03-18T08:13:48.303Z,36.17
2024-03-18T08:14:48.424Z,36.15
2024-03-18T08:15:48.552Z,36.17
2024-03-18T08:16:48.643Z,36.18
2024-03-18T08:17:48.790Z,36.10
2024-03-18T08:18:48.837Z,36.20
2024-03-18T08:19:49.007Z,36.12
2024-03-18T08:20:50.812Z,36.10
2024-03-18T08:21:49.149Z,36.14
2024-03-18T08:22:49.203Z,36.13
2024-03-18T08:23:49.246Z,36.15
2024-03-18T08:24:49.240Z,36.21
2024-03-18T08:25:49.316Z,36.20
2024-03-18T08:26:49.325Z,36.30
2024-03-18T08:27:49.375Z,36.18
2024-03-18T08:28:49.424Z,36.28
2024-03-18T08:29:49.537Z,36.40
2024-03-18T08:30:49.590Z,36.53
2024-03-18T08:31:49.695Z,36.63
2024-03-18T08:33:03.509Z,36.65
2024-03-18T08:34:04.342Z,36.73
2024-03-18T08:34:50.851Z,36.83
2024-03-18T08:35:49.865Z,36.85
2024-03-18T08:36:49.848Z,36.84
2024-03-18T08:37:49.903Z,36.94
2024-03-18T08:38:49.858Z,36.97
2024-03-18T08:39:50.627Z,37.05
2024-03-18T08:40:49.867Z,37.26
2024-03-18T08:41:49.945Z,37.24
2024-03-18T08:42:49.904Z,37.31
2024-03-18T08:43:49.923Z,36.52
2024-03-18T08:44:49.859Z,36.73
2024-03-18T08:45:49.872Z,36.14
2024-03-18T08:46:49.847Z,35.46
2024-03-18T08:47:49.887Z,35.19
2024-03-18T08:48:49.864Z,35.53
2024-03-18T08:49:49.873Z,34.99
2024-03-18T08:50:49.946Z,34.21
2024-03-18T08:51:49.899Z,34.34
2024-03-18T08:52:49.859Z,34.58
2024-03-18T08:53:49.852Z,35.02
2024-03-18T08:54:49.858Z,34.85
2024-03-18T08:55:49.893Z,35.14
2024-03-18T08:56:49.877Z,34.98
2024-03-18T08:57:49.898Z,35.08
2024-03-18T08:58:51.674Z,35.37
2024-03-18T08:59:50.018Z,34.80
2024-03-18T09:00:50.075Z,34.79
2024-03-18T09:01:50.069Z,34.86
2024-03-18T09:02:50.203Z,34.72
2024-03-18T09:03:50.190Z,34.81
2024-03-18T09:04:50.198Z,34.89
2024-03-18T09:05:50.196Z,34.98
2024-03-18T09:06:50.272Z,34.70
2024-03-18T09:07:50.314Z,34.64
2024-03-18T09:08:50.425Z,34.94
2024-03-18T09:09:50.478Z,35.08
2024-03-18T09:10:50.645Z,35.71
2024-03-18T09:11:50.650Z,35.83
2024-03-18T09:12:50.698Z,35.93
2024-03-18T09:13:50.753Z,35.99
2024-03-18T09:14:50.872Z,35.97
2024-03-18T09:15:50.979Z,36.01
2024-03-18T09:16:51.005Z,36.07
2024-03-18T09:17:52.998Z,36.04
2024-03-18T09:18:51.299Z,36.05
2024-03-18T09:19:51.359Z,36.01
2024-03-18T09:20:51.415Z,36.03
2024-03-18T09:21:51.482Z,36.05
2024-03-18T09:22:51.530Z,36.08
2024-03-18T09:23:51.555Z,36.10
2024-03-18T09:24:52.489Z,36.13
2024-03-18T09:25:51.624Z,36.14
2024-03-18T09:26:51.630Z,36.19
2024-03-18T09:27:51.653Z,36.20
2024-03-18T09:28:51.814Z,36.21
2024-03-18T09:29:51.694Z,36.23
2024-03-18T09:30:51.846Z,36.30
2024-03-18T09:31:51.941Z,36.33
2024-03-18T09:32:52.941Z,36.34
2024-03-18T09:33:52.126Z,36.35
2024-03-18T09:35:44.953Z,36.86
2024-03-18T09:36:43.803Z,36.61
2024-03-18T09:37:43.818Z,36.83
2024-03-18T09:38:43.757Z,36.63
2024-03-18T09:39:43.903Z,36.91
2024-03-18T09:40:43.773Z,37.17
2024-03-18T09:41:45.547Z,37.25
2024-03-18T09:42:43.822Z,37.55
2024-03-18T09:43:43.813Z,36.85
2024-03-18T09:44:43.802Z,35.56
2024-03-18T09:45:43.804Z,35.16
2024-03-18T09:46:43.780Z,36.01
2024-03-18T09:47:46.385Z,36.12
2024-03-18T09:48:43.769Z,35.39
2024-03-18T09:49:43.789Z,35.20
2024-03-18T09:50:43.895Z,35.65
2024-03-18T09:51:43.854Z,35.91
2024-03-18T09:52:43.860Z,36.32
2024-03-18T09:53:43.812Z,36.11
2024-03-18T09:54:43.867Z,36.00
2024-03-18T09:55:43.837Z,35.88
2024-03-18T09:56:43.827Z,35.99
2024-03-18T09:57:43.848Z,35.72
2024-03-18T09:58:43.792Z,35.74
2024-03-18T09:59:43.813Z,35.60
2024-03-18T10:00:43.809Z,35.38
2024-03-18T10:01:43.824Z,35.35
2024-03-18T10:02:43.866Z,35.37
2024-03-18T10:03:43.828Z,35.32
2024-03-18T10:04:43.835Z,35.19
2024-03-18T10:05:43.837Z,35.16
2024-03-18T10:06:43.855Z,35.33
2024-03-18T10:07:43.907Z,35.08
2024-03-18T10:08:43.914Z,35.15
2024-03-18T10:09:44.932Z,34.87
2024-03-18T10:10:44.084Z,34.86
2024-03-18T10:11:44.088Z,34.88
2024-03-18T10:12:44.115Z,34.81
2024-03-18T10:13:44.196Z,34.74
2024-03-18T10:14:44.213Z,34.67
2024-03-18T10:15:45.394Z,34.75
2024-03-18T10:16:44.271Z,34.82
2024-03-18T10:17:44.287Z,34.71
2024-03-18T10:18:44.284Z,34.63
2024-03-18T10:19:44.306Z,34.81
2024-03-18T10:20:44.303Z,34.75
2024-03-18T10:21:44.369Z,34.74
2024-03-18T10:22:44.320Z,34.70
2024-03-18T10:23:44.327Z,34.62
2024-03-18T10:24:44.295Z,34.59
2024-03-18T10:25:44.349Z,34.61
2024-03-18T10:26:44.365Z,34.57
2024-03-18T10:27:46.871Z,34.57
2024-03-18T10:28:44.329Z,34.55
2024-03-18T10:29:44.329Z,34.51
2024-03-18T10:30:44.367Z,34.52
2024-03-18T10:31:44.334Z,34.52
2024-03-18T10:32:44.339Z,34.49
2024-03-18T10:33:44.359Z,34.48
2024-03-18T10:34:44.361Z,34.45
2024-03-18T10:35:44.350Z,34.46
2024-03-18T10:36:53.186Z,34.47
2024-03-18T10:37:45.345Z,34.50
2024-03-18T10:38:44.435Z,34.50
2024-03-18T10:39:44.378Z,34.51
2024-03-18T10:40:44.383Z,35.43
2024-03-18T10:41:44.423Z,35.42
2024-03-18T10:42:44.393Z,35.83
2024-03-18T10:43:46.404Z,36.07
2024-03-18T10:44:44.454Z,35.87
2024-03-18T10:45:44.419Z,36.41
2024-03-18T10:46:44.526Z,37.60
2024-03-18T10:47:44.586Z,36.87
2024-03-18T10:48:44.680Z,36.20
2024-03-18T10:49:46.468Z,35.36
2024-03-18T10:50:44.658Z,35.42
2024-03-18T10:51:44.684Z,36.35
2024-03-18T10:52:44.678Z,36.39
2024-03-18T10:53:52.972Z,35.76
2024-03-18T10:54:45.657Z,35.73
2024-03-18T10:55:44.693Z,35.47
2024-03-18T10:56:44.695Z,36.65
2024-03-18T10:57:44.764Z,43.55
2024-03-18T10:58:44.673Z,35.92
2024-03-18T10:59:44.720Z,36.23
2024-03-18T11:00:44.659Z,36.14
2024-03-18T11:01:44.704Z,35.46
2024-03-18T11:02:44.693Z,35.23
2024-03-18T11:03:44.679Z,34.81
2024-03-18T11:04:44.718Z,35.06
2024-03-18T11:05:44.855Z,35.18
2024-03-18T11:06:44.851Z,34.78
2024-03-18T11:07:44.961Z,34.21
2024-03-18T11:08:45.005Z,34.20
2024-03-18T11:09:45.158Z,35.68
2024-03-18T11:10:45.114Z,35.21
2024-03-18T11:11:47.159Z,35.05
2024-03-18T11:12:45.157Z,33.98
2024-03-18T11:13:45.214Z,34.31
2024-03-18T11:14:45.228Z,34.03
2024-03-18T11:15:45.267Z,34.68
2024-03-18T11:16:45.342Z,34.03
2024-03-18T11:17:45.309Z,34.34
2024-03-18T11:18:45.496Z,34.11
2024-03-18T11:19:45.422Z,33.72
2024-03-18T11:20:45.539Z,34.14
2024-03-18T11:21:45.568Z,34.26
2024-03-18T11:22:45.641Z,34.02
2024-03-18T11:23:45.658Z,33.88
2024-03-18T11:24:45.738Z,33.63
2024-03-18T11:25:45.786Z,33.30
2024-03-18T11:26:45.904Z,33.54
2024-03-18T11:27:47.415Z,33.54
2024-03-18T11:28:46.016Z,33.66
2024-03-18T11:29:46.021Z,34.23
2024-03-18T11:30:46.060Z,33.77
2024-03-18T11:31:46.137Z,33.79
2024-03-18T11:32:46.213Z,35.84
2024-03-18T11:33:47.452Z,33.53
2024-03-18T11:34:46.303Z,33.85
2024-03-18T11:35:46.364Z,33.51
2024-03-18T11:36:46.428Z,33.69
2024-03-18T11:37:46.520Z,33.83
2024-03-18T11:38:46.670Z,34.05
2024-03-18T11:39:46.707Z,34.28
2024-03-18T11:40:46.834Z,34.58
2024-03-18T11:41:46.979Z,35.28
2024-03-18T11:42:47.013Z,34.69
2024-03-18T11:43:47.105Z,34.97
2024-03-18T11:44:47.287Z,34.60
2024-03-18T11:45:47.564Z,34.64
2024-03-18T11:46:47.480Z,33.83
2024-03-18T11:47:47.511Z,33.65
2024-03-18T11:48:47.624Z,34.30
2024-03-18T11:49:47.679Z,34.27
2024-03-18T11:50:47.829Z,33.87
2024-03-18T11:51:47.908Z,33.88
2024-03-18T11:52:47.963Z,34.04
2024-03-18T11:53:48.128Z,34.05
2024-03-18T11:54:48.198Z,34.13
2024-03-18T11:55:48.297Z,34.27
2024-03-18T11:56:48.398Z,33.41
2024-03-18T11:57:48.517Z,33.78
2024-03-18T11:58:48.619Z,34.23
2024-03-18T11:59:48.708Z,34.33
2024-03-18T12:00:48.819Z,34.41
2024-03-18T12:01:48.950Z,34.57
2024-03-18T12:02:49.006Z,34.44
2024-03-18T12:03:49.127Z,34.33
2024-03-18T12:04:49.265Z,34.13
2024-03-18T12:05:49.344Z,33.51
2024-03-18T12:06:49.490Z,34.42
2024-03-18T12:07:49.572Z,33.14
2024-03-18T12:08:49.665Z,33.60
2024-03-18T12:09:49.783Z,33.45
2024-03-18T12:10:49.874Z,34.00
2024-03-18T12:11:49.996Z,34.20
2024-03-18T12:12:50.104Z,34.06
2024-03-18T12:13:50.167Z,33.51
2024-03-18T12:14:50.278Z,33.76
2024-03-18T12:15:50.409Z,33.89
2024-03-18T12:16:50.491Z,33.73
2024-03-18T12:17:50.581Z,33.46
2024-03-18T12:18:50.675Z,33.29
2024-03-18T12:19:50.810Z,32.90
2024-03-18T12:20:50.877Z,33.68
2024-03-18T12:21:51.037Z,33.68
2024-03-18T12:22:51.088Z,33.83
2024-03-18T12:23:51.237Z,32.95
2024-03-18T12:24:51.324Z,33.50
2024-03-18T12:25:51.436Z,33.60
2024-03-18T12:26:51.531Z,33.51
2024-03-18T12:27:51.638Z,33.62
2024-03-18T12:28:51.862Z,33.43
2024-03-18T12:29:51.808Z,33.41
2024-03-18T12:30:51.961Z,33.51
2024-03-18T12:31:52.009Z,33.59
2024-03-18T12:32:52.137Z,33.57
2024-03-18T12:33:52.254Z,33.58
2024-03-18T12:34:52.381Z,33.61
2024-03-18T12:35:53.027Z,33.69
2024-03-18T12:36:52.620Z,33.58
2024-03-18T12:37:52.695Z,33.74
2024-03-18T12:38:52.731Z,33.69
2024-03-18T12:39:52.839Z,33.72
2024-03-18T12:40:52.964Z,33.79
2024-03-18T12:41:53.099Z,33.90
2024-03-18T12:42:54.264Z,33.96
2024-03-18T12:43:53.289Z,33.97
2024-03-18T12:44:53.327Z,34.05
2024-03-18T12:45:53.457Z,34.03
2024-03-18T12:46:53.535Z,34.05
2024-03-18T12:47:53.672Z,34.00
2024-03-18T12:48:53.723Z,34.06
2024-03-18T12:49:53.827Z,34.06
2024-03-18T12:50:53.948Z,34.14
2024-03-18T12:51:54.058Z,34.04
2024-03-18T12:52:54.131Z,34.06
2024-03-18T12:53:54.223Z,34.09
2024-03-18T12:54:54.312Z,34.11